createdAt,value
2023-02-19T00:01:56.403Z,98410.83
2023-02-19T00:04:24.465Z,98413.55
2023-02-19T00:06:53.846Z,98408.08
2023-02-19T00:09:21.991Z,98406.77
2023-02-19T00:11:50.488Z,98407.78
2023-02-19T00:14:20.637Z,98409.40
2023-02-19T00:16:49.009Z,98411.73
2023-02-19T00:19:20.224Z,98409.60
2023-02-19T00:21:51.033Z,98413.09
2023-02-19T00:24:19.928Z,98414.09
2023-02-19T00:26:49.197Z,98412.34
2023-02-19T00:29:19.598Z,98415.23
2023-02-19T00:31:47.997Z,98416.48
2023-02-19T00:34:16.457Z,98415.96
2023-02-19T00:36:44.699Z,98411.05
2023-02-19T00:39:15.620Z,98411.52
2023-02-19T00:41:44.472Z,98411.77
2023-02-19T00:44:13.328Z,98416.39
2023-02-19T00:46:46.548Z,98415.71
2023-02-19T00:49:17.722Z,98419.04
2023-02-19T00:51:46.376Z,98418.31
2023-02-19T00:54:14.861Z,98427.94
2023-02-19T00:56:43.183Z,98427.68
2023-02-19T00:59:11.343Z,98430.73
2023-02-19T01:01:40.068Z,98429.92
2023-02-19T01:04:08.472Z,98432.38
2023-02-19T01:06:37.272Z,98432.02
2023-02-19T01:09:07.173Z,98435.64
2023-02-19T01:11:35.734Z,98436.27
2023-02-19T01:14:05.049Z,98441.17
2023-02-19T01:16:33.529Z,98434.42
2023-02-19T01:19:02.564Z,98439.82
2023-02-19T01:21:31.210Z,98438.13
2023-02-19T01:23:59.321Z,98434.56
2023-02-19T01:26:29.835Z,98436.96
2023-02-19T01:29:02.160Z,98444.07
2023-02-19T01:31:30.966Z,98441.80
2023-02-19T01:34:00.689Z,98446.55
2023-02-19T01:36:30.183Z,98448.08
2023-02-19T01:39:00.498Z,98443.37
2023-02-19T01:41:29.177Z,98441.39
2023-02-19T01:44:11.543Z,98448.73
2023-02-19T01:46:40.842Z,98445.86
2023-02-19T01:49:12.366Z,98454.48
2023-02-19T01:51:47.488Z,98455.98
2023-02-19T01:54:16.747Z,98460.33
2023-02-19T01:56:45.252Z,98456.63
2023-02-19T01:59:14.780Z,98463.52
2023-02-19T02:01:46.000Z,98462.04
2023-02-19T02:04:15.579Z,98473.60
2023-02-19T02:06:52.522Z,98481.70
2023-02-19T02:09:42.399Z,98481.25
2023-02-19T02:12:11.147Z,98479.98
2023-02-19T02:14:44.154Z,98483.92
2023-02-19T02:17:12.302Z,98487.69
2023-02-19T02:19:42.035Z,98495.05
2023-02-19T02:22:19.760Z,98492.02
2023-02-19T02:24:57.401Z,98496.68
2023-02-19T02:27:31.445Z,98505.80
2023-02-19T02:30:05.691Z,98503.54
2023-02-19T02:32:39.047Z,98501.90
2023-02-19T02:35:12.372Z,98501.67
2023-02-19T02:37:41.978Z,98498.64
2023-02-19T02:40:10.860Z,98494.48
2023-02-19T02:42:39.959Z,98504.90
2023-02-19T02:45:38.276Z,98505.17
2023-02-19T02:48:45.702Z,98520.07
2023-02-19T02:51:19.477Z,98526.19
2023-02-19T02:54:30.248Z,98532.63
2023-02-19T02:56:59.927Z,98531.50
2023-02-19T02:59:33.486Z,98533.92
2023-02-19T03:02:18.759Z,98542.62
2023-02-19T03:05:08.290Z,98548.61
2023-02-19T03:07:48.335Z,98548.60
2023-02-19T03:10:17.657Z,98550.87
2023-02-19T03:13:05.562Z,98551.34
2023-02-19T03:15:55.709Z,98554.01
2023-02-19T03:18:42.703Z,98557.84
2023-02-19T03:21:11.409Z,98562.02
2023-02-19T03:23:58.845Z,98565.66
2023-02-19T03:26:27.503Z,98567.50
2023-02-19T03:29:14.158Z,98572.00
2023-02-19T03:31:43.877Z,98573.15
2023-02-19T03:35:32.096Z,98579.04
2023-02-19T03:38:18.634Z,98587.39
2023-02-19T03:41:06.787Z,98590.55
2023-02-19T03:43:46.947Z,98592.71
2023-02-19T03:46:23.279Z,98594.15
2023-02-19T03:48:58.778Z,98595.56
2023-02-19T03:51:27.108Z,98594.77
2023-02-19T03:54:20.924Z,98590.00
2023-02-19T03:57:17.987Z,98591.33
2023-02-19T03:59:51.460Z,98591.69
2023-02-19T04:02:26.099Z,98595.88
2023-02-19T04:05:18.999Z,98592.33
2023-02-19T04:07:50.057Z,98587.85
2023-02-19T04:10:20.127Z,98592.77
2023-02-19T04:12:57.731Z,98590.77
2023-02-19T04:15:28.670Z,98597.17
2023-02-19T04:18:04.679Z,98596.31
2023-02-19T04:20:38.827Z,98604.49
2023-02-19T04:23:06.939Z,98605.08
2023-02-19T04:25:36.215Z,98603.70
2023-02-19T04:28:04.818Z,98613.30
2023-02-19T04:30:33.194Z,98622.91
2023-02-19T04:33:01.338Z,98629.05
2023-02-19T04:35:30.479Z,98630.45
2023-02-19T04:37:58.643Z,98632.46
2023-02-19T04:40:26.739Z,98633.83
2023-02-19T04:42:54.881Z,98636.91
2023-02-19T04:45:22.914Z,98636.24
2023-02-19T04:47:52.097Z,98635.27
2023-02-19T04:50:20.320Z,98635.68
2023-02-19T04:52:49.053Z,98637.86
2023-02-19T04:55:17.993Z,98647.83
2023-02-19T04:57:46.706Z,98655.62
2023-02-19T05:00:15.135Z,98658.34
2023-02-19T05:02:44.083Z,98660.40
2023-02-19T05:05:12.288Z,98663.00
2023-02-19T05:07:40.388Z,98667.75
2023-02-19T05:10:08.680Z,98663.69
2023-02-19T05:12:36.935Z,98660.79
2023-02-19T05:15:05.346Z,98662.88
2023-02-19T05:17:34.578Z,98663.38
2023-02-19T05:20:07.640Z,98664.69
2023-02-19T05:22:35.855Z,98666.04
2023-02-19T05:25:07.290Z,98666.54
2023-02-19T05:27:37.219Z,98674.53
2023-02-19T05:30:05.590Z,98677.30
2023-02-19T05:32:35.733Z,98682.11
2023-02-19T05:35:04.033Z,98680.69
2023-02-19T05:37:33.289Z,98683.88
2023-02-19T05:40:01.405Z,98690.21
2023-02-19T05:42:30.382Z,98691.77
2023-02-19T05:45:00.879Z,98693.96
2023-02-19T05:47:29.843Z,98699.76
2023-02-19T05:49:57.898Z,98706.96
2023-02-19T05:52:26.057Z,98710.45
2023-02-19T05:54:54.212Z,98703.13
2023-02-19T05:57:22.456Z,98707.02
2023-02-19T05:59:50.550Z,98716.77
2023-02-19T06:02:20.331Z,98722.85
2023-02-19T06:04:48.400Z,98724.41
2023-02-19T06:07:17.626Z,98721.73
2023-02-19T06:09:46.620Z,98718.51
2023-02-19T06:12:19.845Z,98714.25
2023-02-19T06:14:48.228Z,98712.70
2023-02-19T06:17:16.669Z,98708.23
2023-02-19T06:19:46.454Z,98711.50
2023-02-19T06:22:15.704Z,98717.33
2023-02-19T06:24:47.441Z,98711.86
2023-02-19T06:27:16.047Z,98715.65
2023-02-19T06:29:45.398Z,98709.73
2023-02-19T06:32:13.927Z,98708.00
2023-02-19T06:34:42.074Z,98711.56
2023-02-19T06:37:10.617Z,98716.27
2023-02-19T06:39:38.740Z,98719.14
2023-02-19T06:42:07.188Z,98724.46
2023-02-19T06:44:35.546Z,98729.05
2023-02-19T06:47:03.794Z,98728.40
2023-02-19T06:49:32.528Z,98728.60
2023-02-19T06:52:05.654Z,98724.11
2023-02-19T06:54:33.844Z,98722.00
2023-02-19T06:57:02.238Z,98722.03
2023-02-19T06:59:30.786Z,98720.27
2023-02-19T07:01:58.896Z,98715.16
2023-02-19T07:04:27.179Z,98720.40
2023-02-19T07:06:55.880Z,98718.09
2023-02-19T07:09:25.456Z,98719.73
2023-02-19T07:11:55.421Z,98712.29
2023-02-19T07:14:23.793Z,98720.90
2023-02-19T07:16:53.609Z,98719.53
2023-02-19T07:19:21.876Z,98713.25
2023-02-19T07:21:51.241Z,98713.44
2023-02-19T07:24:21.674Z,98714.15
2023-02-19T07:26:49.745Z,98713.21
2023-02-19T07:29:17.911Z,98715.38
2023-02-19T07:31:46.046Z,98719.46
2023-02-19T07:34:14.483Z,98722.05
2023-02-19T07:36:43.677Z,98721.61
2023-02-19T07:39:13.087Z,98722.00
2023-02-19T07:41:42.253Z,98730.27
2023-02-19T07:44:14.661Z,98726.80
2023-02-19T07:46:43.598Z,98729.02
2023-02-19T07:49:11.619Z,98723.82
2023-02-19T07:51:41.427Z,98727.94
2023-02-19T07:54:09.500Z,98725.73
2023-02-19T07:56:37.743Z,98724.13
2023-02-19T07:59:05.956Z,98727.81
2023-02-19T08:01:52.833Z,98728.16
2023-02-19T08:04:21.968Z,98729.13
2023-02-19T08:06:50.047Z,98731.55
2023-02-19T08:09:18.425Z,98733.42
2023-02-19T08:12:11.459Z,98737.70
2023-02-19T08:14:41.266Z,98743.47
2023-02-19T08:17:12.218Z,98742.13
2023-02-19T08:19:40.504Z,98754.01
2023-02-19T08:22:09.370Z,98758.73
2023-02-19T08:24:41.357Z,98756.66
2023-02-19T08:27:10.966Z,98756.23
2023-02-19T08:29:39.176Z,98756.11
2023-02-19T08:32:07.640Z,98755.42
2023-02-19T08:34:35.914Z,98746.55
2023-02-19T08:37:04.197Z,98748.77
2023-02-19T08:39:32.562Z,98739.72
2023-02-19T08:42:02.245Z,98740.16
2023-02-19T08:44:32.233Z,98736.98
2023-02-19T08:47:02.527Z,98736.73
2023-02-19T08:49:30.791Z,98732.29
2023-02-19T08:52:00.813Z,98735.32
2023-02-19T08:54:30.025Z,98726.37
2023-02-19T08:56:59.500Z,98728.41
2023-02-19T08:59:29.284Z,98726.08
2023-02-19T09:02:00.270Z,98721.25
2023-02-19T09:04:30.461Z,98717.98
2023-02-19T09:06:59.105Z,98708.70
2023-02-19T09:09:27.214Z,98712.51
2023-02-19T09:11:56.351Z,98716.72
2023-02-19T09:14:25.307Z,98713.26
2023-02-19T09:16:53.717Z,98715.50
2023-02-19T09:19:21.993Z,98714.92
2023-02-19T09:21:50.252Z,98713.14
2023-02-19T09:24:18.581Z,98720.61
2023-02-19T09:26:53.693Z,98722.90
2023-02-19T09:29:22.700Z,98718.43
2023-02-19T09:31:50.918Z,98719.20
2023-02-19T09:34:19.057Z,98732.11
2023-02-19T09:36:49.254Z,98734.02
2023-02-19T09:39:18.433Z,98731.58
2023-02-19T09:41:54.905Z,98729.48
2023-02-19T09:44:27.779Z,98725.73
2023-02-19T09:46:57.018Z,98715.75
2023-02-19T09:49:32.176Z,98708.49
2023-02-19T09:52:12.481Z,98700.04
2023-02-19T09:54:41.291Z,98699.46
2023-02-19T09:57:15.167Z,98687.67
2023-02-19T09:59:45.804Z,98679.23
2023-02-19T10:02:17.528Z,98678.43
2023-02-19T10:04:47.290Z,98674.02
2023-02-19T10:07:17.941Z,98671.67
2023-02-19T10:10:10.263Z,98658.13
2023-02-19T10:12:39.831Z,98651.35
2023-02-19T10:15:12.894Z,98646.80
2023-02-19T10:17:41.209Z,98648.56
2023-02-19T10:20:14.948Z,98642.77
2023-02-19T10:22:44.188Z,98645.34
2023-02-19T10:25:15.868Z,98649.02
2023-02-19T10:27:44.116Z,98640.78
2023-02-19T10:30:20.819Z,98634.61
2023-02-19T10:33:04.665Z,98629.38
2023-02-19T10:35:36.183Z,98620.36
2023-02-19T10:38:06.853Z,98609.95
2023-02-19T10:40:35.795Z,98609.80
2023-02-19T10:43:04.319Z,98604.45
2023-02-19T10:45:41.123Z,98591.20
2023-02-19T10:48:19.822Z,98581.38
2023-02-19T10:50:50.943Z,98577.20
2023-02-19T10:53:25.410Z,98579.33
2023-02-19T10:56:14.278Z,98572.97
2023-02-19T10:58:44.905Z,98567.30
2023-02-19T11:01:13.927Z,98560.13
2023-02-19T11:03:42.907Z,98557.46
2023-02-19T11:06:12.117Z,98557.35
2023-02-19T11:08:55.055Z,98554.08
2023-02-19T11:11:28.892Z,98549.46
2023-02-19T11:13:58.656Z,98539.59
2023-02-19T11:16:41.698Z,98528.70
2023-02-19T11:19:25.831Z,98529.70
2023-02-19T11:21:55.121Z,98524.94
2023-02-19T11:24:35.232Z,98519.77
2023-02-19T11:27:05.128Z,98516.92
2023-02-19T11:29:35.002Z,98510.75
2023-02-19T11:32:23.410Z,98511.48
2023-02-19T11:34:52.048Z,98505.86
2023-02-19T11:37:21.301Z,98504.91
2023-02-19T11:39:50.834Z,98507.98
2023-02-19T11:42:18.933Z,98513.04
2023-02-19T11:45:12.793Z,98519.80
2023-02-19T11:48:01.212Z,98522.38
2023-02-19T11:50:42.647Z,98521.55
2023-02-19T11:53:27.398Z,98518.48
2023-02-19T11:55:55.500Z,98519.30
2023-02-19T11:58:45.653Z,98514.41
2023-02-19T12:01:24.418Z,98513.92
2023-02-19T12:04:11.271Z,98514.98
2023-02-19T12:07:10.346Z,98519.77
2023-02-19T12:10:05.614Z,98517.56
2023-02-19T12:12:56.365Z,98509.30
2023-02-19T12:15:30.246Z,98514.92
2023-02-19T12:18:17.311Z,98515.40
2023-02-19T12:20:50.236Z,98518.59
2023-02-19T12:23:34.289Z,98523.21
2023-02-19T12:26:08.929Z,98530.87
2023-02-19T12:28:43.967Z,98530.47
2023-02-19T12:31:35.470Z,98527.95
2023-02-19T12:34:29.997Z,98523.27
2023-02-19T12:37:23.311Z,98527.68
2023-02-19T12:40:11.090Z,98527.88
2023-02-19T12:42:55.369Z,98531.02
2023-02-19T12:45:53.308Z,98534.03
2023-02-19T12:48:39.886Z,98532.20
2023-02-19T12:51:10.833Z,98531.43
2023-02-19T12:53:44.635Z,98530.25
2023-02-19T12:56:19.427Z,98533.58
2023-02-19T12:59:31.245Z,98532.48
2023-02-19T13:02:08.216Z,98534.90
2023-02-19T13:04:57.079Z,98534.02
2023-02-19T13:07:49.063Z,98536.02
2023-02-19T13:10:35.787Z,98534.78
2023-02-19T13:13:47.257Z,98533.25
2023-02-19T13:16:18.909Z,98535.36
2023-02-19T13:18:51.474Z,98533.14
2023-02-19T13:21:40.420Z,98533.79
2023-02-19T13:24:17.430Z,98526.59
2023-02-19T13:26:54.845Z,98526.21
2023-02-19T13:29:42.302Z,98530.48
2023-02-19T13:32:17.238Z,98526.19
2023-02-19T13:35:11.543Z,98527.04
2023-02-19T13:37:40.103Z,98526.89
2023-02-19T13:40:32.690Z,98526.77
2023-02-19T13:43:31.948Z,98524.36
2023-02-19T13:46:10.698Z,98523.89
2023-02-19T13:48:41.348Z,98528.36
2023-02-19T13:51:12.892Z,98530.02
2023-02-19T13:53:45.153Z,98528.14
2023-02-19T13:56:31.604Z,98528.40
2023-02-19T13:59:23.038Z,98528.12
2023-02-19T14:01:54.245Z,98529.23
2023-02-19T14:04:32.567Z,98530.19
2023-02-19T14:07:03.922Z,98532.21
2023-02-19T14:09:44.009Z,98530.77
2023-02-19T14:12:18.102Z,98534.16
2023-02-19T14:14:55.892Z,98531.74
2023-02-19T14:17:35.865Z,98533.85
2023-02-19T14:20:10.307Z,98532.19
2023-02-19T14:22:48.887Z,98535.86
2023-02-19T14:25:35.709Z,98535.14
2023-02-19T14:28:17.288Z,98541.77
2023-02-19T14:31:00.181Z,98540.20
2023-02-19T14:33:30.764Z,98540.78
2023-02-19T14:36:06.273Z,98536.40
2023-02-19T14:38:55.925Z,98535.40
2023-02-19T14:41:24.643Z,98535.38
2023-02-19T14:43:54.158Z,98533.03
2023-02-19T14:46:33.269Z,98537.27
2023-02-19T14:49:05.704Z,98539.25
2023-02-19T14:51:37.377Z,98536.89
2023-02-19T14:54:14.068Z,98537.20
2023-02-19T14:56:47.520Z,98533.29
2023-02-19T14:59:24.192Z,98535.35
2023-02-19T15:02:02.703Z,98535.20
2023-02-19T15:04:36.281Z,98542.17
2023-02-19T15:07:08.752Z,98544.64
2023-02-19T15:09:39.778Z,98551.10
2023-02-19T15:12:08.201Z,98548.75
2023-02-19T15:14:36.599Z,98558.16
2023-02-19T15:17:05.735Z,98563.37
2023-02-19T15:19:36.194Z,98563.05
2023-02-19T15:22:04.405Z,98565.21
2023-02-19T15:24:33.604Z,98569.21
2023-02-19T15:27:01.997Z,98565.90
2023-02-19T15:29:30.244Z,98569.03
2023-02-19T15:32:01.072Z,98573.55
2023-02-19T15:34:31.430Z,98573.42
2023-02-19T15:37:05.726Z,98572.84
2023-02-19T15:39:34.967Z,98582.02
2023-02-19T15:42:07.550Z,98584.49
2023-02-19T15:44:41.925Z,98583.53
2023-02-19T15:47:22.310Z,98589.45
2023-02-19T15:52:12.704Z,98591.50
2023-02-19T15:54:50.310Z,98594.96
2023-02-19T15:57:23.089Z,98598.73
2023-02-19T16:00:26.116Z,98599.20
2023-02-19T16:02:54.607Z,98598.15
2023-02-19T16:05:27.883Z,98598.30
2023-02-19T16:08:30.878Z,98599.62
2023-02-19T16:11:00.765Z,98603.06
2023-02-19T16:13:30.968Z,98597.80
2023-02-19T16:16:03.716Z,98601.11
2023-02-19T16:18:34.716Z,98600.73
2023-02-19T16:21:07.405Z,98605.48
2023-02-19T16:23:35.785Z,98608.21
2023-02-19T16:26:04.222Z,98609.95
2023-02-19T16:28:38.730Z,98615.16
2023-02-19T16:31:12.388Z,98612.37
2023-02-19T16:33:42.534Z,98607.84
2023-02-19T16:36:26.355Z,98603.46
2023-02-19T16:39:03.391Z,98604.95
2023-02-19T16:41:31.482Z,98609.60
2023-02-19T16:44:06.656Z,98616.96
2023-02-19T16:46:34.922Z,98620.58
2023-02-19T16:49:03.695Z,98616.20
2023-02-19T16:51:32.188Z,98614.49
2023-02-19T16:54:00.276Z,98614.70
2023-02-19T16:56:28.657Z,98619.17
2023-02-19T16:58:57.038Z,98618.88
2023-02-19T17:01:28.724Z,98619.66
2023-02-19T17:04:01.427Z,98617.48
2023-02-19T17:06:30.058Z,98617.22
2023-02-19T17:08:58.349Z,98617.63
2023-02-19T17:11:29.258Z,98616.27
2023-02-19T17:13:57.557Z,98614.63
2023-02-19T17:16:28.719Z,98616.75
2023-02-19T17:18:57.234Z,98618.36
2023-02-19T17:21:30.493Z,98618.08
2023-02-19T17:23:58.756Z,98617.17
2023-02-19T17:26:30.795Z,98618.00
2023-02-19T17:29:00.071Z,98621.85
2023-02-19T17:31:28.606Z,98616.55
2023-02-19T17:33:56.829Z,98618.27
2023-02-19T17:36:27.174Z,98617.30
2023-02-19T17:38:55.418Z,98614.15
2023-02-19T17:41:23.603Z,98620.48
2023-02-19T17:43:52.344Z,98622.14
2023-02-19T17:46:22.425Z,98626.90
2023-02-19T17:48:50.920Z,98627.91
2023-02-19T17:51:20.195Z,98633.80
2023-02-19T17:53:48.610Z,98637.38
2023-02-19T17:56:22.232Z,98637.27
2023-02-19T17:58:51.929Z,98636.38
2023-02-19T18:01:20.975Z,98633.32
2023-02-19T18:03:49.710Z,98636.88
2023-02-19T18:06:18.706Z,98638.02
2023-02-19T18:08:51.167Z,98640.98
2023-02-19T18:11:21.698Z,98644.59
2023-02-19T18:13:55.281Z,98643.23
2023-02-19T18:16:24.171Z,98647.60
2023-02-19T18:18:52.356Z,98654.60
2023-02-19T18:21:23.751Z,98658.50
2023-02-19T18:23:52.361Z,98659.77
2023-02-19T18:26:21.474Z,98662.02
2023-02-19T18:28:50.010Z,98663.97
2023-02-19T18:31:19.030Z,98667.70
2023-02-19T18:33:47.320Z,98665.44
2023-02-19T18:36:15.453Z,98668.15
2023-02-19T18:38:46.519Z,98667.30
2023-02-19T18:41:19.553Z,98664.23
2023-02-19T18:43:48.477Z,98671.20
2023-02-19T18:46:17.073Z,98677.30
2023-02-19T18:48:45.547Z,98674.09
2023-02-19T18:51:14.093Z,98678.05
2023-02-19T18:53:44.704Z,98674.74
2023-02-19T18:56:13.434Z,98672.61
2023-02-19T18:58:42.153Z,98677.55
2023-02-19T19:01:10.525Z,98677.59
2023-02-19T19:03:38.935Z,98680.11
2023-02-19T19:06:07.270Z,98679.09
2023-02-19T19:08:35.337Z,98677.77
2023-02-19T19:11:05.139Z,98678.96
2023-02-19T19:13:34.346Z,98680.90
2023-02-19T19:16:05.803Z,98685.83
2023-02-19T19:18:38.095Z,98688.36
2023-02-19T19:21:06.376Z,98693.81
2023-02-19T19:23:35.612Z,98696.88
2023-02-19T19:26:06.879Z,98705.14
2023-02-19T19:28:35.183Z,98708.87
2023-02-19T19:31:04.584Z,98707.66
2023-02-19T19:33:34.753Z,98716.02
2023-02-19T19:36:03.431Z,98720.21
2023-02-19T19:38:33.655Z,98725.85
2023-02-19T19:41:02.032Z,98728.27
2023-02-19T19:43:33.052Z,98733.73
2023-02-19T19:46:03.839Z,98740.64
2023-02-19T19:48:33.218Z,98742.30
2023-02-19T19:51:01.980Z,98740.77
2023-02-19T19:53:30.319Z,98747.60
2023-02-19T19:56:00.081Z,98748.19
2023-02-19T19:58:29.220Z,98751.48
2023-02-19T20:00:57.491Z,98754.83
2023-02-19T20:03:26.073Z,98760.42
2023-02-19T20:05:54.360Z,98762.17
2023-02-19T20:08:22.900Z,98767.66
2023-02-19T20:10:51.610Z,98771.47
2023-02-19T20:13:24.638Z,98781.52
2023-02-19T20:15:58.638Z,98783.05
2023-02-19T20:18:27.621Z,98781.95
2023-02-19T20:20:56.332Z,98783.48
2023-02-19T20:23:26.605Z,98787.73
2023-02-19T20:25:57.732Z,98784.98
2023-02-19T20:28:26.667Z,98791.19
2023-02-19T20:30:55.215Z,98790.27
2023-02-19T20:33:24.091Z,98790.14
2023-02-19T20:35:52.702Z,98796.10
2023-02-19T20:38:20.776Z,98800.15
2023-02-19T20:40:49.215Z,98805.48
2023-02-19T20:43:17.864Z,98814.80
2023-02-19T20:45:47.819Z,98818.58
2023-02-19T20:48:16.886Z,98819.54
2023-02-19T20:50:45.876Z,98823.14
2023-02-19T20:53:14.495Z,98826.69
2023-02-19T20:55:43.417Z,98830.69
2023-02-19T20:58:12.739Z,98836.28
2023-02-19T21:00:40.822Z,98841.56
2023-02-19T21:03:11.746Z,98844.13
2023-02-19T21:05:40.765Z,98848.24
2023-02-19T21:08:10.571Z,98846.28
2023-02-19T21:10:39.247Z,98845.72
2023-02-19T21:13:09.904Z,98847.58
2023-02-19T21:15:38.374Z,98850.61
2023-02-19T21:18:06.485Z,98854.55
2023-02-19T21:20:34.996Z,98852.89
2023-02-19T21:23:03.860Z,98859.11
2023-02-19T21:25:33.974Z,98857.19
2023-02-19T21:28:02.300Z,98859.73
2023-02-19T21:30:31.239Z,98861.30
2023-02-19T21:32:59.830Z,98866.98
2023-02-19T21:35:29.131Z,98875.65
2023-02-19T21:37:57.545Z,98873.04
2023-02-19T21:40:25.880Z,98882.35
2023-02-19T21:42:54.562Z,98882.45
2023-02-19T21:45:23.372Z,98885.57
2023-02-19T21:47:55.187Z,98883.71
2023-02-19T21:50:23.968Z,98889.24
2023-02-19T21:52:52.478Z,98889.89
2023-02-19T21:55:20.754Z,98889.97
2023-02-19T21:57:53.804Z,98890.30
2023-02-19T22:00:22.303Z,98892.83
2023-02-19T22:02:50.622Z,98894.45
2023-02-19T22:05:19.718Z,98894.77
2023-02-19T22:07:48.388Z,98897.80
2023-02-19T22:10:18.773Z,98900.16
2023-02-19T22:12:47.243Z,98905.02
2023-02-19T22:15:17.448Z,98903.48
2023-02-19T22:17:46.770Z,98900.62
2023-02-19T22:20:17.400Z,98901.23
2023-02-19T22:22:46.415Z,98899.69
2023-02-19T22:25:17.440Z,98901.23
2023-02-19T22:27:45.642Z,98900.77
2023-02-19T22:30:13.909Z,98903.38
2023-02-19T22:32:44.328Z,98904.02
2023-02-19T22:35:14.276Z,98902.84
2023-02-19T22:37:43.909Z,98903.70
2023-02-19T22:40:12.895Z,98901.76
2023-02-19T22:42:41.124Z,98910.32
2023-02-19T22:45:12.642Z,98909.25
2023-02-19T22:47:42.021Z,98905.90
2023-02-19T22:50:18.633Z,98907.68
2023-02-19T22:52:49.852Z,98908.32
2023-02-19T22:55:18.466Z,98907.80
2023-02-19T22:57:47.031Z,98905.77
2023-02-19T23:00:19.398Z,98907.93
2023-02-19T23:02:49.114Z,98913.29
2023-02-19T23:05:17.307Z,98912.55
2023-02-19T23:07:45.547Z,98915.38
2023-02-19T23:10:13.880Z,98917.17
2023-02-19T23:12:42.095Z,98915.33
2023-02-19T23:15:10.936Z,98919.34
2023-02-19T23:17:39.364Z,98917.27
2023-02-19T23:20:08.312Z,98920.08
2023-02-19T23:22:37.373Z,98925.06
2023-02-19T23:25:06.310Z,98926.66
2023-02-19T23:27:34.535Z,98924.55
2023-02-19T23:30:02.682Z,98921.66
2023-02-19T23:32:31.388Z,98927.49
2023-02-19T23:34:59.792Z,98922.16
2023-02-19T23:37:27.952Z,98926.84
2023-02-19T23:39:56.402Z,98929.48
2023-02-19T23:42:24.487Z,98926.41
2023-02-19T23:44:52.617Z,98928.74
2023-02-19T23:47:22.628Z,98927.70
2023-02-19T23:49:50.902Z,98930.03
2023-02-19T23:52:19.053Z,98936.74
2023-02-19T23:54:47.384Z,98935.40
2023-02-19T23:57:15.537Z,98928.70
2023-02-19T23:59:44.743Z,98929.95
